createdAt,value
2023-05-19T05:13:03.493Z,60.53
2023-05-19T05:23:17.868Z,60.20
2023-05-19T05:33:27.939Z,59.66
2023-05-19T05:43:37.796Z,59.17
2023-05-19T05:53:47.724Z,58.93
2023-05-19T06:03:57.355Z,59.04
2023-05-19T06:14:08.394Z,58.72
2023-05-19T06:24:18.592Z,57.79
2023-05-19T06:34:28.151Z,57.54
2023-05-19T06:44:37.909Z,57.09
2023-05-19T06:54:47.658Z,56.78
2023-05-19T07:04:57.447Z,55.94
2023-05-19T07:15:07.338Z,55.66
2023-05-19T07:25:17.320Z,54.00
2023-05-19T07:35:27.217Z,53.55
2023-05-19T07:45:37.292Z,37.80
2023-05-19T07:55:48.933Z,35.05
2023-05-19T08:05:59.397Z,39.79
2023-05-19T08:16:10.169Z,34.91
2023-05-19T08:26:20.187Z,35.69
2023-05-19T08:36:30.519Z,37.00
2023-05-19T08:46:41.073Z,36.07
2023-05-19T08:56:50.487Z,36.15
2023-05-19T09:06:59.032Z,37.60
2023-05-19T09:17:08.620Z,37.26
2023-05-19T09:27:18.090Z,37.43
2023-05-19T09:37:28.252Z,35.35
2023-05-19T09:47:39.119Z,34.88
2023-05-19T09:57:49.148Z,37.24
2023-05-19T10:07:58.600Z,36.54
2023-05-19T10:18:08.616Z,35.87
2023-05-19T10:28:18.463Z,35.50
2023-05-19T10:38:28.742Z,35.49
2023-05-19T10:48:38.817Z,37.53
2023-05-19T10:58:49.693Z,36.93
2023-05-19T11:09:00.253Z,36.47
2023-05-19T11:19:09.873Z,35.16
2023-05-19T11:29:20.440Z,35.60
2023-05-19T11:39:33.196Z,36.03
2023-05-19T11:49:43.446Z,34.54
2023-05-19T11:59:53.930Z,36.12
2023-05-19T12:10:04.755Z,34.41
2023-05-19T12:20:14.608Z,35.41
2023-05-19T12:30:25.027Z,34.83
2023-05-19T12:40:34.968Z,36.64
2023-05-19T12:50:45.292Z,34.79
2023-05-19T13:00:55.516Z,34.59
2023-05-19T13:11:04.600Z,34.94
2023-05-19T13:21:14.820Z,34.19
2023-05-19T13:31:26.078Z,33.29
2023-05-19T13:41:36.038Z,31.98
2023-05-19T13:51:45.282Z,33.11
2023-05-19T14:01:55.045Z,33.90
2023-05-19T14:12:05.717Z,34.26
2023-05-19T14:22:16.141Z,33.41
2023-05-19T14:32:26.351Z,34.82
2023-05-19T14:42:37.949Z,34.08
2023-05-19T14:52:48.794Z,34.34
2023-05-19T15:02:59.124Z,35.40
2023-05-19T15:13:08.537Z,36.15
2023-05-19T15:23:18.161Z,36.45
2023-05-19T15:33:27.913Z,36.47
2023-05-19T15:43:37.641Z,36.99
2023-05-19T15:53:47.328Z,37.25
2023-05-19T16:03:57.197Z,38.04
2023-05-19T16:14:08.296Z,37.41
2023-05-19T16:24:19.753Z,37.03
2023-05-19T16:34:30.654Z,37.10
2023-05-19T16:44:40.771Z,37.95
2023-05-19T16:54:51.494Z,37.85
2023-05-19T17:05:01.488Z,38.31
2023-05-19T17:15:11.060Z,38.08
2023-05-19T17:25:20.712Z,38.88
2023-05-19T17:35:30.608Z,39.15
2023-05-19T17:45:40.128Z,39.53
2023-05-19T17:55:50.955Z,39.44
2023-05-19T18:06:00.928Z,39.96
2023-05-19T18:16:11.718Z,40.49
2023-05-19T18:26:22.866Z,40.98
2023-05-19T18:36:33.238Z,42.29
2023-05-19T18:46:42.845Z,43.09
2023-05-19T18:56:53.539Z,44.05
2023-05-19T19:07:04.352Z,45.14
2023-05-19T19:17:13.825Z,45.75
2023-05-19T19:27:23.222Z,46.22
2023-05-19T19:37:33.233Z,46.53
2023-05-19T19:47:43.291Z,47.20
2023-05-19T19:57:53.090Z,47.77
2023-05-19T20:08:02.543Z,48.43
2023-05-19T20:18:13.282Z,48.62
2023-05-19T20:28:24.743Z,49.27
2023-05-19T20:38:34.856Z,49.86
2023-05-19T20:48:44.990Z,50.21
2023-05-19T20:58:54.293Z,50.52
2023-05-19T21:09:04.685Z,51.24
2023-05-19T21:19:15.399Z,51.98
2023-05-19T21:29:53.964Z,52.07
2023-05-19T21:40:05.443Z,53.21
2023-05-19T21:50:16.734Z,53.47
2023-05-19T22:00:27.353Z,53.67
2023-05-19T22:10:37.280Z,54.59
2023-05-19T22:20:48.914Z,54.85
2023-05-19T22:30:58.791Z,55.66
2023-05-19T22:41:09.777Z,56.06
2023-05-19T22:51:20.472Z,57.09
2023-05-19T23:01:31.189Z,57.62
2023-05-19T23:11:40.758Z,57.53
2023-05-19T23:21:51.583Z,57.83
2023-05-19T23:32:02.339Z,57.80
2023-05-19T23:42:12.950Z,57.95
2023-05-19T23:52:23.532Z,58.52
